createdAt,value
2019-01-12T00:00:50.746Z,6.50
2019-01-12T00:03:22.457Z,6.50
2019-01-12T00:05:52.921Z,6.50
2019-01-12T00:08:22.960Z,6.50
2019-01-12T00:10:53.034Z,6.50
2019-01-12T00:13:23.097Z,6.40
2019-01-12T00:15:53.501Z,6.40
2019-01-12T00:18:23.980Z,6.40
2019-01-12T00:20:54.033Z,6.40
2019-01-12T00:23:24.145Z,6.30
2019-01-12T00:25:54.210Z,6.30
2019-01-12T00:28:24.865Z,6.30
2019-01-12T00:30:54.959Z,6.30
2019-01-12T00:33:24.981Z,6.30
2019-01-12T00:35:55.602Z,6.30
2019-01-12T00:38:25.689Z,6.30
2019-01-12T00:40:55.774Z,6.30
2019-01-12T00:43:25.863Z,6.30
2019-01-12T00:45:55.926Z,6.30
2019-01-12T00:48:26.036Z,6.30
2019-01-12T00:50:56.492Z,6.30
2019-01-12T00:53:26.521Z,6.30
2019-01-12T00:55:56.586Z,6.20
2019-01-12T00:58:26.737Z,6.30
2019-01-12T01:00:56.977Z,6.20
2019-01-12T01:03:27.371Z,6.20
2019-01-12T01:05:58.085Z,6.20
2019-01-12T01:08:31.546Z,6.20
2019-01-12T01:11:01.664Z,6.20
2019-01-12T01:13:31.893Z,6.20
2019-01-12T01:16:02.038Z,6.20
2019-01-12T01:18:32.249Z,6.20
2019-01-12T01:21:02.464Z,6.20
2019-01-12T01:23:32.575Z,6.20
2019-01-12T01:26:02.652Z,6.10
2019-01-12T01:28:33.001Z,6.10
2019-01-12T01:31:04.773Z,6.10
2019-01-12T01:33:34.846Z,6.00
2019-01-12T01:36:04.949Z,5.90
2019-01-12T01:38:35.281Z,5.80
2019-01-12T01:41:05.364Z,5.70
2019-01-12T01:43:35.912Z,5.60
2019-01-12T01:46:06.470Z,5.50
2019-01-12T01:48:36.588Z,5.50
2019-01-12T01:51:07.222Z,5.40
2019-01-12T01:53:38.003Z,5.50
2019-01-12T01:56:08.179Z,5.50
2019-01-12T01:58:38.360Z,5.50
2019-01-12T02:01:08.630Z,5.60
2019-01-12T02:03:38.737Z,5.60
2019-01-12T02:06:09.278Z,5.70
2019-01-12T02:08:40.291Z,5.70
2019-01-12T02:11:10.431Z,5.70
2019-01-12T02:13:40.471Z,5.80
2019-01-12T02:16:10.703Z,5.80
2019-01-12T02:18:41.116Z,5.80
2019-01-12T02:21:11.179Z,5.80
2019-01-12T02:23:41.427Z,5.80
2019-01-12T02:26:11.547Z,5.80
2019-01-12T02:28:41.675Z,5.80
2019-01-12T02:31:11.957Z,5.80
2019-01-12T02:33:42.091Z,5.80
2019-01-12T02:36:12.279Z,5.80
2019-01-12T02:38:42.642Z,5.80
2019-01-12T02:41:13.385Z,5.80
2019-01-12T02:43:43.942Z,5.70
2019-01-12T02:46:15.121Z,5.70
2019-01-12T02:48:45.261Z,5.70
2019-01-12T02:51:15.483Z,5.70
2019-01-12T02:53:45.722Z,5.70
2019-01-12T02:56:15.833Z,5.70
2019-01-12T02:58:46.067Z,5.70
2019-01-12T03:01:16.254Z,5.70
2019-01-12T03:03:46.385Z,5.70
2019-01-12T03:06:16.951Z,5.70
2019-01-12T03:08:48.419Z,5.70
2019-01-12T03:11:20.286Z,5.80
2019-01-12T03:13:50.332Z,5.80
2019-01-12T03:16:20.398Z,5.80
2019-01-12T03:18:50.689Z,5.80
2019-01-12T03:21:20.755Z,5.80
2019-01-12T03:23:51.001Z,5.80
2019-01-12T03:26:21.159Z,5.90
2019-01-12T03:28:51.306Z,5.90
2019-01-12T03:31:21.522Z,5.90
2019-01-12T03:33:51.887Z,5.90
2019-01-12T03:36:23.032Z,5.90
2019-01-12T03:38:53.247Z,5.90
2019-01-12T03:41:25.507Z,5.90
2019-01-12T03:43:55.643Z,5.90
2019-01-12T03:46:25.763Z,5.90
2019-01-12T03:48:55.861Z,5.90
2019-01-12T03:51:27.314Z,6.00
2019-01-12T03:53:57.388Z,6.00
2019-01-12T03:56:27.458Z,6.00
2019-01-12T03:58:57.669Z,6.00
2019-01-12T04:01:27.988Z,6.00
2019-01-12T04:03:58.612Z,6.00
2019-01-12T04:06:28.701Z,6.00
2019-01-12T04:08:59.261Z,6.00
2019-01-12T04:11:29.741Z,6.00
2019-01-12T04:13:59.804Z,6.00
2019-01-12T04:16:30.017Z,6.00
2019-01-12T04:19:00.230Z,6.00
2019-01-12T04:21:30.364Z,6.00
2019-01-12T04:24:00.550Z,6.10
2019-01-12T04:26:30.976Z,6.00
2019-01-12T04:29:02.020Z,6.10
2019-01-12T04:31:32.223Z,6.00
2019-01-12T04:34:02.331Z,6.10
2019-01-12T04:36:32.698Z,6.10
2019-01-12T04:39:02.853Z,6.10
2019-01-12T04:41:33.022Z,6.20
2019-01-12T04:44:03.137Z,6.20
2019-01-12T04:46:33.416Z,6.20
2019-01-12T04:49:03.742Z,6.20
2019-01-12T04:51:35.014Z,6.30
2019-01-12T04:54:05.284Z,6.30
2019-01-12T04:56:35.430Z,6.30
2019-01-12T04:59:06.012Z,6.30
2019-01-12T05:01:36.166Z,6.40
2019-01-12T05:04:07.872Z,6.40
2019-01-12T05:06:39.792Z,6.30
2019-01-12T05:09:10.136Z,6.30
2019-01-12T05:11:40.222Z,6.30
2019-01-12T05:14:10.427Z,6.30
2019-01-12T05:16:40.686Z,6.30
2019-01-12T05:19:10.898Z,6.30
2019-01-12T05:21:41.236Z,6.30
2019-01-12T05:24:12.440Z,6.30
2019-01-12T05:26:42.500Z,6.30
2019-01-12T05:29:12.639Z,6.30
2019-01-12T05:31:42.860Z,6.30
2019-01-12T05:34:12.980Z,6.30
2019-01-12T05:36:43.444Z,6.30
2019-01-12T05:39:13.507Z,6.30
2019-01-12T05:41:43.577Z,6.20
2019-01-12T05:44:13.827Z,6.20
2019-01-12T05:46:44.149Z,6.20
2019-01-12T05:49:14.261Z,6.20
2019-01-12T05:51:44.499Z,6.30
2019-01-12T05:54:14.608Z,6.30
2019-01-12T05:56:46.346Z,6.20
2019-01-12T05:59:16.569Z,6.30
2019-01-12T06:01:46.642Z,6.20
2019-01-12T06:04:16.669Z,6.20
2019-01-12T06:06:47.192Z,6.20
2019-01-12T06:09:17.768Z,6.20
2019-01-12T06:11:48.505Z,6.20
2019-01-12T06:14:20.206Z,6.20
2019-01-12T06:16:50.271Z,6.20
2019-01-12T06:19:20.398Z,6.20
2019-01-12T06:21:50.556Z,6.20
2019-01-12T06:24:21.057Z,6.20
2019-01-12T06:26:51.119Z,6.20
2019-01-12T06:29:21.230Z,6.20
2019-01-12T06:31:51.413Z,6.20
2019-01-12T06:34:21.592Z,6.20
2019-01-12T06:36:51.784Z,6.20
2019-01-12T06:39:22.113Z,6.20
2019-01-12T06:41:52.302Z,6.30
2019-01-12T06:44:22.906Z,6.30
2019-01-12T06:46:53.054Z,6.30
2019-01-12T06:49:23.598Z,6.30
2019-01-12T06:51:53.692Z,6.30
2019-01-12T06:54:23.772Z,6.30
2019-01-12T06:56:54.015Z,6.30
2019-01-12T06:59:24.160Z,6.30
2019-01-12T07:01:54.240Z,6.30
2019-01-12T07:04:24.986Z,6.30
2019-01-12T07:06:55.252Z,6.30
2019-01-12T07:09:25.869Z,6.30
2019-01-12T07:11:55.921Z,6.30
2019-01-12T07:14:26.430Z,6.30
2019-01-12T07:16:56.492Z,6.30
2019-01-12T07:19:26.526Z,6.20
2019-01-12T07:21:57.150Z,6.30
2019-01-12T07:24:28.059Z,6.30
2019-01-12T07:26:58.181Z,6.30
2019-01-12T07:29:28.274Z,6.30
2019-01-12T07:31:58.364Z,6.30
2019-01-12T07:34:28.449Z,6.30
2019-01-12T07:36:58.662Z,6.30
2019-01-12T07:39:28.860Z,6.30
2019-01-12T07:42:00.148Z,6.30
2019-01-12T07:44:30.202Z,6.30
2019-01-12T07:47:01.389Z,6.30
2019-01-12T07:49:31.471Z,6.30
2019-01-12T07:52:01.853Z,6.30
2019-01-12T07:54:31.946Z,6.30
2019-01-12T07:57:02.219Z,6.30
2019-01-12T07:59:33.236Z,6.30
2019-01-12T08:02:03.708Z,6.50
2019-01-12T08:04:33.832Z,6.50
2019-01-12T08:07:04.038Z,6.50
2019-01-12T08:09:34.084Z,6.50
2019-01-12T08:12:04.541Z,6.50
2019-01-12T08:14:34.577Z,6.40
2019-01-12T08:17:05.153Z,6.50
2019-01-12T08:19:35.868Z,6.50
2019-01-12T08:22:06.252Z,6.50
2019-01-12T08:24:36.293Z,6.60
2019-01-12T08:27:06.490Z,6.60
2019-01-12T08:29:36.790Z,6.60
2019-01-12T08:32:06.931Z,6.60
2019-01-12T08:34:37.080Z,6.70
2019-01-12T08:37:07.236Z,6.70
2019-01-12T08:39:37.657Z,6.80
2019-01-12T08:42:08.808Z,6.80
2019-01-12T08:44:39.930Z,6.80
2019-01-12T08:47:10.206Z,6.80
2019-01-12T08:49:40.656Z,6.90
2019-01-12T08:52:13.466Z,6.80
2019-01-12T08:54:43.540Z,6.90
2019-01-12T08:57:16.380Z,7.00
2019-01-12T08:59:46.534Z,7.00
2019-01-12T09:02:16.644Z,7.00
2019-01-12T09:04:46.700Z,7.10
2019-01-12T09:07:18.276Z,7.10
2019-01-12T09:09:50.020Z,7.20
2019-01-12T09:12:20.678Z,7.20
2019-01-12T09:14:52.419Z,7.30
2019-01-12T09:17:22.732Z,7.30
2019-01-12T09:19:52.761Z,7.40
2019-01-12T09:22:22.914Z,7.40
2019-01-12T09:24:53.074Z,7.40
2019-01-12T09:27:23.353Z,7.40
2019-01-12T09:29:53.464Z,7.40
2019-01-12T09:32:23.639Z,7.40
2019-01-12T09:34:53.707Z,7.40
2019-01-12T09:37:23.832Z,7.40
2019-01-12T09:39:54.232Z,7.40
2019-01-12T09:42:24.526Z,7.40
2019-01-12T09:44:54.591Z,7.50
2019-01-12T09:47:25.063Z,7.50
2019-01-12T09:49:55.157Z,7.50
2019-01-12T09:52:25.478Z,7.60
2019-01-12T09:54:56.094Z,7.60
2019-01-12T09:57:26.731Z,7.60
2019-01-12T09:59:56.825Z,7.60
2019-01-12T10:02:26.988Z,7.60
2019-01-12T10:04:58.206Z,7.70
2019-01-12T10:07:29.202Z,7.70
2019-01-12T10:10:00.258Z,7.60
2019-01-12T10:12:31.948Z,7.60
2019-01-12T10:15:02.146Z,7.60
2019-01-12T10:17:35.296Z,7.60
2019-01-12T10:20:07.302Z,7.70
2019-01-12T10:22:37.505Z,7.80
2019-01-12T10:25:09.395Z,7.90
2019-01-12T10:27:39.495Z,8.00
2019-01-12T10:30:31.595Z,8.10
2019-01-12T10:33:01.664Z,8.20
2019-01-12T10:35:32.100Z,8.20
2019-01-12T10:38:02.204Z,8.20
2019-01-12T10:40:32.306Z,8.20
2019-01-12T10:43:02.654Z,8.00
2019-01-12T10:45:32.998Z,8.00
2019-01-12T10:48:03.074Z,8.00
2019-01-12T10:50:36.557Z,8.00
2019-01-12T10:53:06.963Z,7.90
2019-01-12T10:55:37.122Z,7.70
2019-01-12T10:58:09.590Z,7.60
2019-01-12T11:00:40.540Z,7.50
2019-01-12T11:03:11.221Z,7.50
2019-01-12T11:05:41.719Z,7.50
2019-01-12T11:08:13.553Z,7.60
2019-01-12T11:10:43.736Z,7.60
2019-01-12T11:13:13.796Z,7.70
2019-01-12T11:15:43.839Z,7.70
2019-01-12T11:18:14.014Z,7.70
2019-01-12T11:20:44.220Z,7.70
2019-01-12T11:23:15.080Z,7.70
2019-01-12T11:25:45.180Z,7.70
2019-01-12T11:28:15.416Z,7.70
2019-01-12T11:30:45.595Z,7.70
2019-01-12T11:33:15.973Z,7.70
2019-01-12T11:35:46.194Z,7.70
2019-01-12T11:38:18.187Z,7.60
2019-01-12T11:40:48.368Z,7.50
2019-01-12T11:43:18.603Z,7.50
2019-01-12T11:45:49.013Z,7.40
2019-01-12T11:48:20.472Z,7.40
2019-01-12T11:50:52.464Z,7.50
2019-01-12T11:53:22.824Z,7.50
2019-01-12T11:55:52.975Z,7.50
2019-01-12T11:58:23.247Z,7.50
2019-01-12T12:00:53.409Z,7.50
2019-01-12T12:03:23.507Z,7.50
2019-01-12T12:05:56.163Z,7.50
2019-01-12T12:08:26.320Z,7.50
2019-01-12T12:10:59.684Z,7.40
2019-01-12T12:13:30.166Z,7.40
2019-01-12T12:16:01.542Z,7.40
2019-01-12T12:18:34.660Z,7.30
2019-01-12T12:21:04.262Z,7.30
2019-01-12T12:23:34.378Z,7.30
2019-01-12T12:26:04.535Z,7.30
2019-01-12T12:28:34.815Z,7.40
2019-01-12T12:31:06.569Z,7.40
2019-01-12T12:33:36.825Z,7.40
2019-01-12T12:36:07.430Z,7.40
2019-01-12T12:38:37.546Z,7.40
2019-01-12T12:41:07.900Z,7.40
2019-01-12T12:43:38.120Z,7.40
2019-01-12T12:46:08.282Z,7.30
2019-01-12T12:48:39.049Z,7.30
2019-01-12T12:51:09.133Z,7.30
2019-01-12T12:53:39.297Z,7.30
2019-01-12T12:56:09.379Z,7.30
2019-01-12T12:58:39.478Z,7.30
2019-01-12T13:01:09.547Z,7.30
2019-01-12T13:03:41.508Z,7.30
2019-01-12T13:06:11.680Z,7.40
2019-01-12T13:08:48.288Z,7.40
2019-01-12T13:11:14.429Z,7.40
2019-01-12T13:13:45.309Z,7.40
2019-01-12T13:16:15.366Z,7.40
2019-01-12T13:18:45.638Z,7.40
2019-01-12T13:21:15.878Z,7.40
2019-01-12T13:23:47.923Z,7.40
2019-01-12T13:26:21.678Z,7.40
2019-01-12T13:28:51.969Z,7.40
2019-01-12T13:31:22.123Z,7.40
2019-01-12T13:33:52.779Z,7.40
2019-01-12T13:36:23.160Z,7.40
2019-01-12T13:38:53.464Z,7.40
2019-01-12T13:41:23.675Z,7.40
2019-01-12T13:43:53.833Z,7.50
2019-01-12T13:46:24.719Z,7.50
2019-01-12T13:48:55.081Z,7.50
2019-01-12T13:51:25.396Z,7.50
2019-01-12T13:53:55.685Z,7.50
2019-01-12T13:56:25.975Z,7.50
2019-01-12T13:58:56.198Z,7.50
2019-01-12T14:01:26.672Z,7.50
2019-01-12T14:03:56.955Z,7.60
2019-01-12T14:06:27.715Z,7.60
2019-01-12T14:08:57.919Z,7.60
2019-01-12T14:11:28.011Z,7.60
2019-01-12T14:13:59.859Z,7.60
2019-01-12T14:16:29.976Z,7.70
2019-01-12T14:19:00.117Z,7.70
2019-01-12T14:21:31.853Z,7.70
2019-01-12T14:24:03.827Z,7.70
2019-01-12T14:26:33.923Z,7.70
2019-01-12T14:29:03.998Z,7.80
2019-01-12T14:31:34.603Z,7.80
2019-01-12T14:34:04.787Z,7.90
2019-01-12T14:36:34.960Z,7.80
2019-01-12T14:39:09.788Z,7.90
2019-01-12T14:41:40.850Z,7.90
2019-01-12T14:44:10.965Z,8.00
2019-01-12T14:46:41.135Z,8.00
2019-01-12T14:49:11.280Z,8.00
2019-01-12T14:51:41.653Z,8.10
2019-01-12T14:54:11.974Z,8.10
2019-01-12T14:56:42.108Z,8.10
2019-01-12T14:59:12.278Z,8.10
2019-01-12T15:01:42.464Z,8.10
2019-01-12T15:04:12.639Z,8.10
2019-01-12T15:06:42.786Z,8.10
2019-01-12T15:09:12.956Z,8.10
2019-01-12T15:11:43.073Z,8.00
2019-01-12T15:14:13.599Z,8.10
2019-01-12T15:16:43.676Z,8.00
2019-01-12T15:19:13.817Z,8.00
2019-01-12T15:21:44.370Z,8.00
2019-01-12T15:24:14.574Z,8.10
2019-01-12T15:26:44.618Z,8.00
2019-01-12T15:29:14.846Z,8.10
2019-01-12T15:31:45.485Z,8.10
2019-01-12T15:34:15.901Z,8.10
2019-01-12T15:36:46.181Z,8.10
2019-01-12T15:39:16.286Z,8.10
2019-01-12T15:41:46.430Z,8.10
2019-01-12T15:44:16.628Z,8.10
2019-01-12T15:46:46.850Z,8.10
2019-01-12T15:49:17.089Z,8.20
2019-01-12T15:51:47.184Z,8.20
2019-01-12T15:54:17.565Z,8.20
2019-01-12T15:56:49.527Z,8.20
2019-01-12T15:59:19.813Z,8.20
2019-01-12T16:01:51.543Z,8.20
2019-01-12T16:04:21.726Z,8.20
2019-01-12T16:06:52.424Z,8.20
2019-01-12T16:09:22.809Z,8.20
2019-01-12T16:11:53.369Z,8.20
2019-01-12T16:14:23.493Z,8.20
2019-01-12T16:16:53.566Z,8.20
2019-01-12T16:19:23.667Z,8.10
2019-01-12T16:21:54.574Z,8.20
2019-01-12T16:24:27.963Z,8.20
2019-01-12T16:26:58.360Z,8.10
2019-01-12T16:29:29.021Z,8.10
2019-01-12T16:31:59.233Z,8.10
2019-01-12T16:34:30.074Z,8.10
2019-01-12T16:37:00.254Z,8.00
2019-01-12T16:39:30.463Z,8.00
2019-01-12T16:42:00.684Z,8.00
2019-01-12T16:44:30.951Z,8.00
2019-01-12T16:47:01.185Z,8.00
2019-01-12T16:49:31.324Z,8.00
2019-01-12T16:52:01.418Z,8.00
2019-01-12T16:54:32.068Z,8.00
2019-01-12T16:57:02.825Z,7.90
2019-01-12T16:59:34.786Z,7.90
2019-01-12T17:02:05.172Z,7.90
2019-01-12T17:04:35.313Z,7.90
2019-01-12T17:07:05.354Z,7.90
2019-01-12T17:09:35.879Z,7.90
2019-01-12T17:12:06.282Z,7.90
2019-01-12T17:14:39.706Z,7.90
2019-01-12T17:17:09.942Z,7.80
2019-01-12T17:19:40.116Z,7.80
2019-01-12T17:22:13.463Z,7.80
2019-01-12T17:24:46.315Z,7.80
2019-01-12T17:27:16.471Z,7.70
2019-01-12T17:29:46.630Z,7.70
2019-01-12T17:32:16.707Z,7.70
2019-01-12T17:34:47.221Z,7.70
2019-01-12T17:37:18.958Z,7.70
2019-01-12T17:39:49.441Z,7.70
2019-01-12T17:42:19.558Z,7.70
2019-01-12T17:44:51.659Z,7.70
2019-01-12T17:47:21.781Z,7.70
2019-01-12T17:49:51.930Z,7.70
2019-01-12T17:52:22.127Z,7.70
2019-01-12T17:54:53.354Z,7.80
2019-01-12T17:57:23.542Z,7.80
2019-01-12T17:59:53.750Z,7.70
2019-01-12T18:02:24.223Z,7.80
2019-01-12T18:04:54.655Z,7.70
2019-01-12T18:07:24.767Z,7.70
2019-01-12T18:09:54.924Z,7.70
2019-01-12T18:12:25.323Z,7.60
2019-01-12T18:14:55.394Z,7.60
2019-01-12T18:17:25.515Z,7.60
2019-01-12T18:19:55.654Z,7.60
2019-01-12T18:22:25.968Z,7.60
2019-01-12T18:24:56.378Z,7.60
2019-01-12T18:27:26.509Z,7.60
2019-01-12T18:29:56.852Z,7.60
2019-01-12T18:32:26.925Z,7.60
2019-01-12T18:34:57.439Z,7.60
2019-01-12T18:37:27.695Z,7.60
2019-01-12T18:39:57.827Z,7.60
2019-01-12T18:42:27.898Z,7.60
2019-01-12T18:44:58.460Z,7.60
2019-01-12T18:47:28.642Z,7.60
2019-01-12T18:49:58.892Z,7.60
2019-01-12T18:52:29.021Z,7.70
2019-01-12T18:54:59.084Z,7.70
2019-01-12T18:57:35.217Z,7.70
2019-01-12T19:00:09.129Z,7.70
2019-01-12T19:02:39.394Z,7.70
2019-01-12T19:05:12.209Z,7.70
2019-01-12T19:07:43.978Z,7.70
2019-01-12T19:10:15.233Z,7.70
2019-01-12T19:12:45.344Z,7.70
2019-01-12T19:15:20.698Z,7.80
2019-01-12T19:17:50.825Z,7.80
2019-01-12T19:20:21.583Z,7.80
2019-01-12T19:22:51.730Z,7.80
2019-01-12T19:25:22.003Z,7.80
2019-01-12T19:27:52.191Z,7.80
2019-01-12T19:30:23.896Z,7.80
2019-01-12T19:32:54.063Z,7.80
2019-01-12T19:35:24.192Z,7.80
2019-01-12T19:37:54.257Z,7.80
2019-01-12T19:40:25.918Z,7.80
2019-01-12T19:42:56.368Z,7.80
2019-01-12T19:45:26.473Z,7.80
2019-01-12T19:47:56.748Z,7.80
2019-01-12T19:50:27.256Z,7.90
2019-01-12T19:52:57.977Z,7.80
2019-01-12T19:55:28.315Z,7.80
2019-01-12T19:57:58.501Z,7.80
2019-01-12T20:00:33.543Z,7.70
2019-01-12T20:03:04.049Z,7.80
2019-01-12T20:05:34.178Z,7.80
2019-01-12T20:08:04.409Z,7.80
2019-01-12T20:10:34.517Z,7.90
2019-01-12T20:13:06.408Z,7.90
2019-01-12T20:15:38.698Z,7.90
2019-01-12T20:18:08.943Z,7.90
2019-01-12T20:20:39.044Z,7.90
2019-01-12T20:23:10.822Z,7.90
2019-01-12T20:25:40.980Z,8.00
2019-01-12T20:28:13.978Z,8.00
2019-01-12T20:31:24.620Z,8.00
2019-01-12T20:34:30.269Z,8.00
2019-01-12T20:37:30.682Z,8.00
2019-01-12T20:40:38.686Z,8.00
2019-01-12T20:43:16.817Z,8.00
2019-01-12T20:46:29.805Z,8.00
2019-01-12T20:49:21.732Z,8.00
2019-01-12T20:52:18.155Z,8.00
2019-01-12T20:55:25.420Z,8.00
2019-01-12T20:58:32.940Z,8.00
2019-01-12T21:01:40.160Z,8.00
2019-01-12T21:04:41.500Z,8.00
2019-01-12T21:07:34.359Z,8.00
2019-01-12T21:10:47.337Z,8.00
2019-01-12T21:14:06.007Z,8.00
2019-01-12T21:16:46.181Z,8.00
2019-01-12T21:19:16.216Z,8.00
2019-01-12T21:21:46.252Z,8.00
2019-01-12T21:24:16.449Z,8.00
2019-01-12T21:26:46.560Z,8.00
2019-01-12T21:29:16.900Z,8.00
2019-01-12T21:31:47.082Z,8.00
2019-01-12T21:34:17.211Z,8.00
2019-01-12T21:36:47.370Z,8.00
2019-01-12T21:39:19.041Z,8.00
2019-01-12T21:41:49.075Z,8.00
2019-01-12T21:44:22.029Z,8.10
2019-01-12T21:46:52.263Z,8.10
2019-01-12T21:49:22.345Z,8.10
2019-01-12T21:51:52.550Z,8.10
2019-01-12T21:54:22.624Z,8.10
2019-01-12T21:56:52.911Z,8.20
2019-01-12T21:59:23.170Z,8.20
2019-01-12T22:01:53.452Z,8.20
2019-01-12T22:04:23.661Z,8.20
2019-01-12T22:06:53.782Z,8.10
2019-01-12T22:09:24.259Z,8.20
2019-01-12T22:11:54.414Z,8.20
2019-01-12T22:14:24.481Z,8.20
2019-01-12T22:16:54.570Z,8.20
2019-01-12T22:19:25.197Z,8.20
2019-01-12T22:21:55.322Z,8.20
2019-01-12T22:24:25.444Z,8.20
2019-01-12T22:26:56.492Z,8.20
2019-01-12T22:29:26.568Z,8.20
2019-01-12T22:31:56.751Z,8.20
2019-01-12T22:34:26.911Z,8.20
2019-01-12T22:36:57.040Z,8.20
2019-01-12T22:39:27.376Z,8.20
2019-01-12T22:41:57.577Z,8.20
2019-01-12T22:44:27.819Z,8.20
2019-01-12T22:46:57.993Z,8.20
2019-01-12T22:49:28.129Z,8.20
2019-01-12T22:51:58.291Z,8.20
2019-01-12T22:54:28.397Z,8.20
2019-01-12T22:56:58.714Z,8.20
2019-01-12T22:59:28.806Z,8.20
2019-01-12T23:02:05.198Z,8.20
2019-01-12T23:04:36.170Z,8.20
2019-01-12T23:07:11.365Z,8.20
2019-01-12T23:09:38.982Z,8.20
2019-01-12T23:12:09.197Z,8.20
2019-01-12T23:14:39.346Z,8.20
2019-01-12T23:17:10.065Z,8.10
2019-01-12T23:19:40.196Z,8.20
2019-01-12T23:22:10.293Z,8.10
2019-01-12T23:24:40.535Z,8.10
2019-01-12T23:27:10.857Z,8.10
2019-01-12T23:29:41.096Z,8.10
2019-01-12T23:32:11.167Z,8.10
2019-01-12T23:34:41.304Z,8.00
2019-01-12T23:37:11.741Z,7.90
2019-01-12T23:39:41.786Z,7.90
2019-01-12T23:42:12.088Z,7.90
2019-01-12T23:44:42.199Z,7.80
2019-01-12T23:47:12.375Z,7.80
2019-01-12T23:49:42.506Z,7.80
2019-01-12T23:52:12.754Z,7.80
2019-01-12T23:54:43.015Z,7.80
2019-01-12T23:57:13.560Z,7.70
2019-01-12T23:59:43.672Z,7.70
